sensor_id;sensor_type;location;lat;lon;timestamp;P1;durP1;ratioP1;P2;durP2;ratioP2
20232;SDS011;37438;55.674;13.074;2023-05-29T00:01:29;26.90;;;3.50;;
20232;SDS011;37438;55.674;13.074;2023-05-29T00:04:35;16.63;;;4.70;;
20232;SDS011;37438;55.674;13.074;2023-05-29T00:07:40;14.80;;;3.17;;
20232;SDS011;37438;55.674;13.074;2023-05-29T00:10:45;19.67;;;4.30;;
20232;SDS011;37438;55.674;13.074;2023-05-29T00:13:49;20.50;;;2.90;;
20232;SDS011;37438;55.674;13.074;2023-05-29T00:16:54;15.57;;;3.47;;
20232;SDS011;37438;55.674;13.074;2023-05-29T00:19:59;30.08;;;5.18;;
20232;SDS011;37438;55.674;13.074;2023-05-29T00:23:05;22.52;;;3.55;;
20232;SDS011;37438;55.674;13.074;2023-05-29T00:26:10;26.58;;;5.00;;
20232;SDS011;37438;55.674;13.074;2023-05-29T00:29:16;19.92;;;3.13;;
20232;SDS011;37438;55.674;13.074;2023-05-29T00:32:21;24.15;;;4.72;;
20232;SDS011;37438;55.674;13.074;2023-05-29T00:35:25;19.35;;;4.95;;
20232;SDS011;37438;55.674;13.074;2023-05-29T00:38:30;17.02;;;3.53;;
20232;SDS011;37438;55.674;13.074;2023-05-29T00:41:34;23.90;;;3.35;;
20232;SDS011;37438;55.674;13.074;2023-05-29T00:44:38;18.33;;;3.33;;
20232;SDS011;37438;55.674;13.074;2023-05-29T00:47:43;22.13;;;4.18;;
20232;SDS011;37438;55.674;13.074;2023-05-29T00:50:48;23.83;;;4.97;;
20232;SDS011;37438;55.674;13.074;2023-05-29T00:53:54;19.60;;;4.18;;
20232;SDS011;37438;55.674;13.074;2023-05-29T00:57:01;24.95;;;4.63;;
20232;SDS011;37438;55.674;13.074;2023-05-29T01:00:06;21.42;;;4.30;;
20232;SDS011;37438;55.674;13.074;2023-05-29T01:03:20;22.88;;;4.60;;
20232;SDS011;37438;55.674;13.074;2023-05-29T01:06:27;21.60;;;3.88;;
20232;SDS011;37438;55.674;13.074;2023-05-29T01:09:31;17.17;;;3.05;;
20232;SDS011;37438;55.674;13.074;2023-05-29T01:12:49;39.63;;;7.25;;
20232;SDS011;37438;55.674;13.074;2023-05-29T01:16:03;24.15;;;5.57;;
20232;SDS011;37438;55.674;13.074;2023-05-29T01:19:19;17.17;;;3.00;;
20232;SDS011;37438;55.674;13.074;2023-05-29T01:26:11;23.10;;;3.42;;
20232;SDS011;37438;55.674;13.074;2023-05-29T01:29:26;21.75;;;3.63;;
20232;SDS011;37438;55.674;13.074;2023-05-29T01:32:35;16.90;;;3.20;;
20232;SDS011;37438;55.674;13.074;2023-05-29T01:35:41;26.92;;;5.38;;
20232;SDS011;37438;55.674;13.074;2023-05-29T01:38:45;11.80;;;3.03;;
20232;SDS011;37438;55.674;13.074;2023-05-29T01:41:51;19.92;;;3.95;;
20232;SDS011;37438;55.674;13.074;2023-05-29T01:44:56;20.08;;;3.78;;
20232;SDS011;37438;55.674;13.074;2023-05-29T01:48:01;18.70;;;2.92;;
20232;SDS011;37438;55.674;13.074;2023-05-29T01:51:06;12.63;;;3.78;;
20232;SDS011;37438;55.674;13.074;2023-05-29T01:54:11;17.48;;;3.53;;
20232;SDS011;37438;55.674;13.074;2023-05-29T01:57:15;12.13;;;3.38;;
20232;SDS011;37438;55.674;13.074;2023-05-29T02:00:21;23.48;;;4.57;;
20232;SDS011;37438;55.674;13.074;2023-05-29T02:06:33;16.65;;;3.33;;
20232;SDS011;37438;55.674;13.074;2023-05-29T02:09:38;34.95;;;5.90;;
20232;SDS011;37438;55.674;13.074;2023-05-29T02:12:42;25.98;;;4.28;;
20232;SDS011;37438;55.674;13.074;2023-05-29T02:15:46;25.53;;;4.77;;
20232;SDS011;37438;55.674;13.074;2023-05-29T02:18:51;15.45;;;2.60;;
20232;SDS011;37438;55.674;13.074;2023-05-29T02:21:55;24.88;;;3.25;;
20232;SDS011;37438;55.674;13.074;2023-05-29T02:24:59;15.48;;;2.08;;
20232;SDS011;37438;55.674;13.074;2023-05-29T02:28:04;21.85;;;4.47;;
20232;SDS011;37438;55.674;13.074;2023-05-29T02:31:09;24.58;;;3.60;;
20232;SDS011;37438;55.674;13.074;2023-05-29T02:34:14;17.17;;;3.38;;
20232;SDS011;37438;55.674;13.074;2023-05-29T02:40:23;27.05;;;4.03;;
20232;SDS011;37438;55.674;13.074;2023-05-29T02:43:28;24.85;;;3.92;;
20232;SDS011;37438;55.674;13.074;2023-05-29T02:46:32;26.35;;;4.63;;
20232;SDS011;37438;55.674;13.074;2023-05-29T02:52:41;24.77;;;3.97;;
20232;SDS011;37438;55.674;13.074;2023-05-29T02:55:46;29.10;;;4.32;;
20232;SDS011;37438;55.674;13.074;2023-05-29T02:58:52;27.23;;;4.18;;
20232;SDS011;37438;55.674;13.074;2023-05-29T03:01:56;23.33;;;4.55;;
20232;SDS011;37438;55.674;13.074;2023-05-29T03:05:00;23.05;;;4.25;;
20232;SDS011;37438;55.674;13.074;2023-05-29T03:08:05;24.13;;;4.07;;
20232;SDS011;37438;55.674;13.074;2023-05-29T03:11:10;24.02;;;4.03;;
20232;SDS011;37438;55.674;13.074;2023-05-29T03:14:15;21.75;;;4.22;;
20232;SDS011;37438;55.674;13.074;2023-05-29T03:17:19;27.25;;;5.05;;
20232;SDS011;37438;55.674;13.074;2023-05-29T03:20:24;19.25;;;3.63;;
20232;SDS011;37438;55.674;13.074;2023-05-29T03:23:32;21.30;;;3.67;;
20232;SDS011;37438;55.674;13.074;2023-05-29T03:26:37;17.52;;;3.55;;
20232;SDS011;37438;55.674;13.074;2023-05-29T03:29:42;18.92;;;3.67;;
20232;SDS011;37438;55.674;13.074;2023-05-29T03:32:46;17.70;;;3.58;;
20232;SDS011;37438;55.674;13.074;2023-05-29T03:35:51;18.75;;;3.75;;
20232;SDS011;37438;55.674;13.074;2023-05-29T03:38:55;20.75;;;3.67;;
20232;SDS011;37438;55.674;13.074;2023-05-29T03:41:59;18.77;;;3.55;;
20232;SDS011;37438;55.674;13.074;2023-05-29T03:48:12;19.33;;;3.40;;
20232;SDS011;37438;55.674;13.074;2023-05-29T03:51:16;23.13;;;4.05;;
20232;SDS011;37438;55.674;13.074;2023-05-29T03:54:21;27.23;;;3.92;;
20232;SDS011;37438;55.674;13.074;2023-05-29T03:57:26;27.35;;;5.00;;
20232;SDS011;37438;55.674;13.074;2023-05-29T04:00:30;23.48;;;4.47;;
20232;SDS011;37438;55.674;13.074;2023-05-29T04:03:38;24.33;;;4.32;;
20232;SDS011;37438;55.674;13.074;2023-05-29T04:06:43;21.70;;;4.55;;
20232;SDS011;37438;55.674;13.074;2023-05-29T04:09:48;21.30;;;3.53;;
20232;SDS011;37438;55.674;13.074;2023-05-29T04:12:52;17.60;;;3.38;;
20232;SDS011;37438;55.674;13.074;2023-05-29T04:15:58;13.70;;;3.63;;
20232;SDS011;37438;55.674;13.074;2023-05-29T04:19:03;22.75;;;3.35;;
20232;SDS011;37438;55.674;13.074;2023-05-29T04:22:08;22.10;;;4.50;;
20232;SDS011;37438;55.674;13.074;2023-05-29T04:25:12;19.75;;;3.50;;
20232;SDS011;37438;55.674;13.074;2023-05-29T04:28:17;9.43;;;2.60;;
20232;SDS011;37438;55.674;13.074;2023-05-29T04:31:25;26.30;;;3.47;;
20232;SDS011;37438;55.674;13.074;2023-05-29T04:34:31;24.20;;;3.40;;
20232;SDS011;37438;55.674;13.074;2023-05-29T04:40:44;23.08;;;4.13;;
20232;SDS011;37438;55.674;13.074;2023-05-29T04:43:53;24.75;;;5.03;;
20232;SDS011;37438;55.674;13.074;2023-05-29T04:47:02;27.17;;;4.90;;
20232;SDS011;37438;55.674;13.074;2023-05-29T04:50:13;23.80;;;4.47;;
20232;SDS011;37438;55.674;13.074;2023-05-29T04:53:20;30.52;;;4.57;;
20232;SDS011;37438;55.674;13.074;2023-05-29T04:56:24;20.27;;;3.55;;
20232;SDS011;37438;55.674;13.074;2023-05-29T04:59:30;20.45;;;3.20;;
20232;SDS011;37438;55.674;13.074;2023-05-29T05:02:35;29.67;;;4.38;;
20232;SDS011;37438;55.674;13.074;2023-05-29T05:05:41;24.58;;;4.25;;
20232;SDS011;37438;55.674;13.074;2023-05-29T05:11:50;21.00;;;5.07;;
20232;SDS011;37438;55.674;13.074;2023-05-29T05:14:54;23.63;;;5.68;;
20232;SDS011;37438;55.674;13.074;2023-05-29T05:18:01;22.35;;;4.63;;
20232;SDS011;37438;55.674;13.074;2023-05-29T05:21:06;20.65;;;4.35;;
20232;SDS011;37438;55.674;13.074;2023-05-29T05:24:12;15.48;;;4.40;;
20232;SDS011;37438;55.674;13.074;2023-05-29T05:27:17;20.13;;;4.85;;
20232;SDS011;37438;55.674;13.074;2023-05-29T05:30:22;19.77;;;4.32;;
20232;SDS011;37438;55.674;13.074;2023-05-29T05:33:26;21.15;;;3.65;;
20232;SDS011;37438;55.674;13.074;2023-05-29T05:36:30;28.15;;;4.10;;
20232;SDS011;37438;55.674;13.074;2023-05-29T05:39:44;20.38;;;3.63;;
20232;SDS011;37438;55.674;13.074;2023-05-29T05:45:55;19.15;;;4.00;;
20232;SDS011;37438;55.674;13.074;2023-05-29T05:49:00;17.13;;;3.35;;
20232;SDS011;37438;55.674;13.074;2023-05-29T05:55:10;24.13;;;5.68;;
20232;SDS011;37438;55.674;13.074;2023-05-29T05:58:14;18.75;;;4.32;;
20232;SDS011;37438;55.674;13.074;2023-05-29T06:01:20;24.25;;;5.88;;
20232;SDS011;37438;55.674;13.074;2023-05-29T06:04:25;13.82;;;3.47;;
20232;SDS011;37438;55.674;13.074;2023-05-29T06:07:30;25.02;;;4.70;;
20232;SDS011;37438;55.674;13.074;2023-05-29T06:10:34;19.00;;;4.93;;
20232;SDS011;37438;55.674;13.074;2023-05-29T06:13:39;18.95;;;3.95;;
20232;SDS011;37438;55.674;13.074;2023-05-29T06:16:53;15.17;;;3.23;;
20232;SDS011;37438;55.674;13.074;2023-05-29T06:19:58;16.70;;;4.07;;
20232;SDS011;37438;55.674;13.074;2023-05-29T06:23:05;20.00;;;5.90;;
20232;SDS011;37438;55.674;13.074;2023-05-29T06:26:10;18.23;;;4.15;;
20232;SDS011;37438;55.674;13.074;2023-05-29T06:29:16;28.42;;;5.00;;
20232;SDS011;37438;55.674;13.074;2023-05-29T06:32:20;22.08;;;4.75;;
20232;SDS011;37438;55.674;13.074;2023-05-29T06:38:30;22.73;;;5.22;;
20232;SDS011;37438;55.674;13.074;2023-05-29T06:41:35;27.55;;;6.60;;
20232;SDS011;37438;55.674;13.074;2023-05-29T06:44:39;27.80;;;4.82;;
20232;SDS011;37438;55.674;13.074;2023-05-29T06:47:44;15.35;;;4.15;;
20232;SDS011;37438;55.674;13.074;2023-05-29T06:50:49;19.83;;;4.78;;
20232;SDS011;37438;55.674;13.074;2023-05-29T06:54:12;20.60;;;4.07;;
20232;SDS011;37438;55.674;13.074;2023-05-29T06:57:18;19.73;;;3.72;;
20232;SDS011;37438;55.674;13.074;2023-05-29T07:00:22;25.33;;;5.90;;
20232;SDS011;37438;55.674;13.074;2023-05-29T07:03:53;16.00;;;3.72;;
20232;SDS011;37438;55.674;13.074;2023-05-29T07:06:58;21.15;;;4.45;;
20232;SDS011;37438;55.674;13.074;2023-05-29T07:10:03;17.92;;;2.83;;
20232;SDS011;37438;55.674;13.074;2023-05-29T07:13:07;17.15;;;4.43;;
20232;SDS011;37438;55.674;13.074;2023-05-29T07:16:13;18.20;;;4.13;;
20232;SDS011;37438;55.674;13.074;2023-05-29T07:19:33;23.90;;;4.25;;
20232;SDS011;37438;55.674;13.074;2023-05-29T07:22:40;20.27;;;4.90;;
20232;SDS011;37438;55.674;13.074;2023-05-29T07:25:45;18.65;;;4.43;;
20232;SDS011;37438;55.674;13.074;2023-05-29T07:28:50;19.92;;;3.92;;
20232;SDS011;37438;55.674;13.074;2023-05-29T07:31:55;18.20;;;4.22;;
20232;SDS011;37438;55.674;13.074;2023-05-29T07:35:00;15.40;;;4.32;;
20232;SDS011;37438;55.674;13.074;2023-05-29T07:38:05;26.52;;;5.57;;
20232;SDS011;37438;55.674;13.074;2023-05-29T07:41:10;28.30;;;4.72;;
20232;SDS011;37438;55.674;13.074;2023-05-29T07:44:16;17.13;;;4.38;;
20232;SDS011;37438;55.674;13.074;2023-05-29T07:47:20;18.05;;;4.63;;
20232;SDS011;37438;55.674;13.074;2023-05-29T07:50:24;17.48;;;3.90;;
20232;SDS011;37438;55.674;13.074;2023-05-29T07:53:29;21.50;;;4.57;;
20232;SDS011;37438;55.674;13.074;2023-05-29T07:56:34;18.30;;;4.38;;
20232;SDS011;37438;55.674;13.074;2023-05-29T07:59:42;26.85;;;5.13;;
20232;SDS011;37438;55.674;13.074;2023-05-29T08:02:48;18.13;;;4.70;;
20232;SDS011;37438;55.674;13.074;2023-05-29T08:06:15;19.13;;;4.35;;
20232;SDS011;37438;55.674;13.074;2023-05-29T08:09:21;19.92;;;4.88;;
20232;SDS011;37438;55.674;13.074;2023-05-29T08:15:33;17.60;;;3.85;;
20232;SDS011;37438;55.674;13.074;2023-05-29T08:18:38;14.35;;;3.10;;
20232;SDS011;37438;55.674;13.074;2023-05-29T08:21:43;15.10;;;4.05;;
20232;SDS011;37438;55.674;13.074;2023-05-29T08:24:47;18.58;;;4.15;;
20232;SDS011;37438;55.674;13.074;2023-05-29T08:27:52;19.90;;;4.82;;
20232;SDS011;37438;55.674;13.074;2023-05-29T08:30:56;16.70;;;3.85;;
20232;SDS011;37438;55.674;13.074;2023-05-29T08:37:05;17.60;;;4.53;;
20232;SDS011;37438;55.674;13.074;2023-05-29T08:40:09;11.02;;;3.28;;
20232;SDS011;37438;55.674;13.074;2023-05-29T08:43:16;19.27;;;4.03;;
20232;SDS011;37438;55.674;13.074;2023-05-29T08:46:24;14.20;;;3.25;;
20232;SDS011;37438;55.674;13.074;2023-05-29T08:49:38;15.77;;;3.70;;
20232;SDS011;37438;55.674;13.074;2023-05-29T08:52:47;11.20;;;3.10;;
20232;SDS011;37438;55.674;13.074;2023-05-29T08:55:52;15.93;;;4.68;;
20232;SDS011;37438;55.674;13.074;2023-05-29T08:58:57;14.48;;;3.08;;
20232;SDS011;37438;55.674;13.074;2023-05-29T09:02:03;12.52;;;3.42;;
20232;SDS011;37438;55.674;13.074;2023-05-29T09:05:08;17.02;;;3.67;;
20232;SDS011;37438;55.674;13.074;2023-05-29T09:08:14;15.52;;;3.65;;
20232;SDS011;37438;55.674;13.074;2023-05-29T09:11:19;17.17;;;4.25;;
20232;SDS011;37438;55.674;13.074;2023-05-29T09:14:35;14.32;;;3.50;;
20232;SDS011;37438;55.674;13.074;2023-05-29T09:17:51;17.83;;;4.85;;
20232;SDS011;37438;55.674;13.074;2023-05-29T09:21:06;14.68;;;3.50;;
20232;SDS011;37438;55.674;13.074;2023-05-29T09:24:14;13.85;;;4.10;;
20232;SDS011;37438;55.674;13.074;2023-05-29T09:27:18;14.23;;;3.58;;
20232;SDS011;37438;55.674;13.074;2023-05-29T09:30:39;10.38;;;3.35;;
20232;SDS011;37438;55.674;13.074;2023-05-29T09:33:48;14.70;;;3.28;;
20232;SDS011;37438;55.674;13.074;2023-05-29T09:36:53;16.67;;;3.20;;
20232;SDS011;37438;55.674;13.074;2023-05-29T09:40:06;10.70;;;2.67;;
20232;SDS011;37438;55.674;13.074;2023-05-29T09:43:12;9.13;;;2.38;;
20232;SDS011;37438;55.674;13.074;2023-05-29T09:46:17;5.07;;;1.60;;
20232;SDS011;37438;55.674;13.074;2023-05-29T09:49:22;7.65;;;1.73;;
20232;SDS011;37438;55.674;13.074;2023-05-29T09:52:28;2.22;;;1.00;;
20232;SDS011;37438;55.674;13.074;2023-05-29T09:55:34;6.43;;;1.38;;
20232;SDS011;37438;55.674;13.074;2023-05-29T09:58:40;4.20;;;1.17;;
20232;SDS011;37438;55.674;13.074;2023-05-29T10:01:54;3.45;;;0.38;;
20232;SDS011;37438;55.674;13.074;2023-05-29T10:05:11;6.97;;;0.60;;
20232;SDS011;37438;55.674;13.074;2023-05-29T10:08:19;4.40;;;0.65;;
20232;SDS011;37438;55.674;13.074;2023-05-29T10:11:24;1.70;;;0.50;;
20232;SDS011;37438;55.674;13.074;2023-05-29T10:14:31;2.85;;;0.77;;
20232;SDS011;37438;55.674;13.074;2023-05-29T10:17:37;0.65;;;0.52;;
20232;SDS011;37438;55.674;13.074;2023-05-29T10:20:43;2.05;;;0.95;;
20232;SDS011;37438;55.674;13.074;2023-05-29T10:23:51;2.58;;;0.68;;
20232;SDS011;37438;55.674;13.074;2023-05-29T10:26:55;1.92;;;0.93;;
20232;SDS011;37438;55.674;13.074;2023-05-29T10:30:04;0.80;;;0.43;;
20232;SDS011;37438;55.674;13.074;2023-05-29T10:36:32;1.35;;;0.60;;
20232;SDS011;37438;55.674;13.074;2023-05-29T10:39:41;2.47;;;0.22;;
20232;SDS011;37438;55.674;13.074;2023-05-29T10:42:46;3.05;;;0.22;;
20232;SDS011;37438;55.674;13.074;2023-05-29T10:45:58;3.10;;;0.60;;
20232;SDS011;37438;55.674;13.074;2023-05-29T10:49:04;2.10;;;0.30;;
20232;SDS011;37438;55.674;13.074;2023-05-29T10:52:22;3.80;;;0.50;;
20232;SDS011;37438;55.674;13.074;2023-05-29T10:55:37;1.70;;;0.55;;
20232;SDS011;37438;55.674;13.074;2023-05-29T10:58:42;0.57;;;0.30;;
20232;SDS011;37438;55.674;13.074;2023-05-29T11:01:47;3.35;;;0.70;;
20232;SDS011;37438;55.674;13.074;2023-05-29T11:05:06;3.80;;;0.65;;
20232;SDS011;37438;55.674;13.074;2023-05-29T11:15:40;5.22;;;0.50;;
20232;SDS011;37438;55.674;13.074;2023-05-29T11:18:45;2.33;;;0.40;;
20232;SDS011;37438;55.674;13.074;2023-05-29T11:21:53;2.60;;;0.80;;
20232;SDS011;37438;55.674;13.074;2023-05-29T11:25:09;1.65;;;0.20;;
20232;SDS011;37438;55.674;13.074;2023-05-29T11:28:14;3.08;;;0.75;;
20232;SDS011;37438;55.674;13.074;2023-05-29T11:31:19;2.58;;;0.40;;
20232;SDS011;37438;55.674;13.074;2023-05-29T11:34:27;4.30;;;0.40;;
20232;SDS011;37438;55.674;13.074;2023-05-29T11:37:32;3.13;;;0.47;;
20232;SDS011;37438;55.674;13.074;2023-05-29T11:40:36;1.08;;;0.50;;
20232;SDS011;37438;55.674;13.074;2023-05-29T11:43:44;4.25;;;0.40;;
20232;SDS011;37438;55.674;13.074;2023-05-29T11:47:06;5.10;;;0.60;;
20232;SDS011;37438;55.674;13.074;2023-05-29T11:50:21;5.53;;;0.50;;
20232;SDS011;37438;55.674;13.074;2023-05-29T11:53:30;1.98;;;0.50;;
20232;SDS011;37438;55.674;13.074;2023-05-29T11:56:35;2.20;;;1.13;;
20232;SDS011;37438;55.674;13.074;2023-05-29T11:59:40;4.28;;;1.00;;
20232;SDS011;37438;55.674;13.074;2023-05-29T12:02:46;3.72;;;0.60;;
20232;SDS011;37438;55.674;13.074;2023-05-29T12:05:52;1.80;;;0.50;;
20232;SDS011;37438;55.674;13.074;2023-05-29T12:08:59;2.10;;;0.57;;
20232;SDS011;37438;55.674;13.074;2023-05-29T12:12:05;5.07;;;0.40;;
20232;SDS011;37438;55.674;13.074;2023-05-29T12:15:10;1.30;;;0.70;;
20232;SDS011;37438;55.674;13.074;2023-05-29T12:18:15;2.65;;;0.80;;
20232;SDS011;37438;55.674;13.074;2023-05-29T12:21:21;3.15;;;0.40;;
20232;SDS011;37438;55.674;13.074;2023-05-29T12:24:26;4.65;;;0.63;;
20232;SDS011;37438;55.674;13.074;2023-05-29T12:27:46;6.75;;;0.80;;
20232;SDS011;37438;55.674;13.074;2023-05-29T12:30:57;3.22;;;0.52;;
20232;SDS011;37438;55.674;13.074;2023-05-29T12:34:10;4.32;;;0.85;;
20232;SDS011;37438;55.674;13.074;2023-05-29T12:37:20;1.65;;;0.52;;
20232;SDS011;37438;55.674;13.074;2023-05-29T12:40:30;5.43;;;0.80;;
20232;SDS011;37438;55.674;13.074;2023-05-29T12:49:50;1.27;;;0.38;;
20232;SDS011;37438;55.674;13.074;2023-05-29T12:52:55;1.08;;;0.30;;
20232;SDS011;37438;55.674;13.074;2023-05-29T12:56:04;6.95;;;0.60;;
20232;SDS011;37438;55.674;13.074;2023-05-29T12:59:09;3.20;;;0.60;;
20232;SDS011;37438;55.674;13.074;2023-05-29T13:02:14;7.15;;;0.57;;
20232;SDS011;37438;55.674;13.074;2023-05-29T13:05:19;4.82;;;0.85;;
20232;SDS011;37438;55.674;13.074;2023-05-29T13:08:28;1.65;;;0.40;;
20232;SDS011;37438;55.674;13.074;2023-05-29T13:11:32;0.95;;;0.50;;
20232;SDS011;37438;55.674;13.074;2023-05-29T13:14:40;2.40;;;0.57;;
20232;SDS011;37438;55.674;13.074;2023-05-29T13:17:44;6.53;;;0.52;;
20232;SDS011;37438;55.674;13.074;2023-05-29T13:20:49;0.63;;;0.50;;
20232;SDS011;37438;55.674;13.074;2023-05-29T13:23:53;1.95;;;0.50;;
20232;SDS011;37438;55.674;13.074;2023-05-29T13:26:58;1.02;;;0.38;;
20232;SDS011;37438;55.674;13.074;2023-05-29T13:30:05;1.67;;;0.70;;
20232;SDS011;37438;55.674;13.074;2023-05-29T13:33:10;1.20;;;0.60;;
20232;SDS011;37438;55.674;13.074;2023-05-29T13:36:14;2.28;;;0.40;;
20232;SDS011;37438;55.674;13.074;2023-05-29T13:39:19;2.70;;;0.40;;
20232;SDS011;37438;55.674;13.074;2023-05-29T13:42:23;3.40;;;0.50;;
20232;SDS011;37438;55.674;13.074;2023-05-29T13:45:28;2.67;;;0.50;;
20232;SDS011;37438;55.674;13.074;2023-05-29T13:48:32;0.40;;;0.32;;
20232;SDS011;37438;55.674;13.074;2023-05-29T13:51:38;2.05;;;0.75;;
20232;SDS011;37438;55.674;13.074;2023-05-29T13:54:42;2.58;;;0.60;;
20232;SDS011;37438;55.674;13.074;2023-05-29T13:57:47;1.67;;;0.65;;
20232;SDS011;37438;55.674;13.074;2023-05-29T14:00:51;2.10;;;0.73;;
20232;SDS011;37438;55.674;13.074;2023-05-29T14:03:56;1.92;;;0.52;;
20232;SDS011;37438;55.674;13.074;2023-05-29T14:07:00;1.98;;;0.63;;
20232;SDS011;37438;55.674;13.074;2023-05-29T14:10:05;0.65;;;0.45;;
20232;SDS011;37438;55.674;13.074;2023-05-29T14:13:09;2.05;;;0.43;;
20232;SDS011;37438;55.674;13.074;2023-05-29T14:16:15;2.42;;;0.40;;
20232;SDS011;37438;55.674;13.074;2023-05-29T14:19:20;3.65;;;0.63;;
20232;SDS011;37438;55.674;13.074;2023-05-29T14:22:26;2.17;;;0.38;;
20232;SDS011;37438;55.674;13.074;2023-05-29T14:25:30;6.43;;;0.70;;
20232;SDS011;37438;55.674;13.074;2023-05-29T14:28:35;1.17;;;0.40;;
20232;SDS011;37438;55.674;13.074;2023-05-29T14:31:41;1.42;;;0.50;;
20232;SDS011;37438;55.674;13.074;2023-05-29T14:34:47;2.28;;;0.55;;
20232;SDS011;37438;55.674;13.074;2023-05-29T14:37:52;2.35;;;0.63;;
20232;SDS011;37438;55.674;13.074;2023-05-29T14:40:56;4.32;;;0.80;;
20232;SDS011;37438;55.674;13.074;2023-05-29T14:44:13;8.20;;;0.90;;
20232;SDS011;37438;55.674;13.074;2023-05-29T14:47:18;5.65;;;0.90;;
20232;SDS011;37438;55.674;13.074;2023-05-29T14:50:22;2.17;;;0.70;;
20232;SDS011;37438;55.674;13.074;2023-05-29T14:53:27;2.78;;;0.88;;
20232;SDS011;37438;55.674;13.074;2023-05-29T14:56:31;7.90;;;1.02;;
20232;SDS011;37438;55.674;13.074;2023-05-29T14:59:35;2.25;;;0.77;;
20232;SDS011;37438;55.674;13.074;2023-05-29T15:02:40;5.15;;;0.90;;
20232;SDS011;37438;55.674;13.074;2023-05-29T15:05:45;5.68;;;1.05;;
20232;SDS011;37438;55.674;13.074;2023-05-29T15:08:50;3.15;;;0.88;;
20232;SDS011;37438;55.674;13.074;2023-05-29T15:11:55;2.90;;;0.73;;
20232;SDS011;37438;55.674;13.074;2023-05-29T15:14:59;1.42;;;0.63;;
20232;SDS011;37438;55.674;13.074;2023-05-29T15:18:04;6.05;;;0.80;;
20232;SDS011;37438;55.674;13.074;2023-05-29T15:21:08;2.88;;;0.40;;
20232;SDS011;37438;55.674;13.074;2023-05-29T15:24:14;5.32;;;1.10;;
20232;SDS011;37438;55.674;13.074;2023-05-29T15:27:18;3.22;;;0.50;;
20232;SDS011;37438;55.674;13.074;2023-05-29T15:30:23;3.30;;;1.27;;
20232;SDS011;37438;55.674;13.074;2023-05-29T15:33:27;3.72;;;0.70;;
20232;SDS011;37438;55.674;13.074;2023-05-29T15:36:34;5.80;;;1.98;;
20232;SDS011;37438;55.674;13.074;2023-05-29T15:39:40;3.22;;;2.13;;
20232;SDS011;37438;55.674;13.074;2023-05-29T15:42:44;5.15;;;1.33;;
20232;SDS011;37438;55.674;13.074;2023-05-29T15:45:49;2.15;;;0.82;;
20232;SDS011;37438;55.674;13.074;2023-05-29T15:48:54;3.13;;;0.77;;
20232;SDS011;37438;55.674;13.074;2023-05-29T15:51:58;1.95;;;0.85;;
20232;SDS011;37438;55.674;13.074;2023-05-29T15:55:03;3.42;;;1.33;;
20232;SDS011;37438;55.674;13.074;2023-05-29T15:58:07;2.33;;;0.57;;
20232;SDS011;37438;55.674;13.074;2023-05-29T16:01:12;3.20;;;0.82;;
20232;SDS011;37438;55.674;13.074;2023-05-29T16:04:16;2.92;;;0.70;;
20232;SDS011;37438;55.674;13.074;2023-05-29T16:07:21;3.45;;;0.90;;
20232;SDS011;37438;55.674;13.074;2023-05-29T16:10:25;5.22;;;0.93;;
20232;SDS011;37438;55.674;13.074;2023-05-29T16:13:29;1.42;;;0.60;;
20232;SDS011;37438;55.674;13.074;2023-05-29T16:16:36;2.03;;;1.08;;
20232;SDS011;37438;55.674;13.074;2023-05-29T16:19:41;3.35;;;0.60;;
20232;SDS011;37438;55.674;13.074;2023-05-29T16:22:45;3.20;;;0.88;;
20232;SDS011;37438;55.674;13.074;2023-05-29T16:25:51;6.00;;;1.35;;
20232;SDS011;37438;55.674;13.074;2023-05-29T16:28:57;3.47;;;0.82;;
20232;SDS011;37438;55.674;13.074;2023-05-29T16:32:03;5.35;;;0.93;;
20232;SDS011;37438;55.674;13.074;2023-05-29T16:35:07;2.15;;;0.80;;
20232;SDS011;37438;55.674;13.074;2023-05-29T16:38:12;5.80;;;1.00;;
20232;SDS011;37438;55.674;13.074;2023-05-29T16:41:17;2.58;;;0.60;;
20232;SDS011;37438;55.674;13.074;2023-05-29T16:44:21;5.40;;;1.45;;
20232;SDS011;37438;55.674;13.074;2023-05-29T16:47:26;4.80;;;1.38;;
20232;SDS011;37438;55.674;13.074;2023-05-29T16:50:30;5.90;;;0.68;;
20232;SDS011;37438;55.674;13.074;2023-05-29T16:53:34;3.75;;;0.90;;
20232;SDS011;37438;55.674;13.074;2023-05-29T16:56:39;1.15;;;0.68;;
20232;SDS011;37438;55.674;13.074;2023-05-29T16:59:43;3.78;;;0.80;;
20232;SDS011;37438;55.674;13.074;2023-05-29T17:02:48;2.40;;;0.90;;
20232;SDS011;37438;55.674;13.074;2023-05-29T17:05:52;0.95;;;0.30;;
20232;SDS011;37438;55.674;13.074;2023-05-29T17:08:57;2.60;;;0.68;;
20232;SDS011;37438;55.674;13.074;2023-05-29T17:12:02;6.45;;;3.45;;
20232;SDS011;37438;55.674;13.074;2023-05-29T17:15:07;11.52;;;5.90;;
20232;SDS011;37438;55.674;13.074;2023-05-29T17:18:11;3.00;;;1.70;;
20232;SDS011;37438;55.674;13.074;2023-05-29T17:21:16;3.42;;;0.75;;
20232;SDS011;37438;55.674;13.074;2023-05-29T17:24:20;2.20;;;0.65;;
20232;SDS011;37438;55.674;13.074;2023-05-29T17:27:25;3.55;;;0.80;;
20232;SDS011;37438;55.674;13.074;2023-05-29T17:30:29;2.13;;;0.88;;
20232;SDS011;37438;55.674;13.074;2023-05-29T17:33:34;4.07;;;0.95;;
20232;SDS011;37438;55.674;13.074;2023-05-29T17:36:38;4.57;;;1.15;;
20232;SDS011;37438;55.674;13.074;2023-05-29T17:42:47;3.47;;;0.70;;
20232;SDS011;37438;55.674;13.074;2023-05-29T17:45:52;0.70;;;0.60;;
20232;SDS011;37438;55.674;13.074;2023-05-29T17:48:57;2.83;;;0.50;;
20232;SDS011;37438;55.674;13.074;2023-05-29T17:55:09;0.93;;;0.70;;
20232;SDS011;37438;55.674;13.074;2023-05-29T17:58:13;5.72;;;0.90;;
20232;SDS011;37438;55.674;13.074;2023-05-29T18:01:17;5.43;;;1.40;;
20232;SDS011;37438;55.674;13.074;2023-05-29T18:04:22;0.90;;;0.65;;
20232;SDS011;37438;55.674;13.074;2023-05-29T18:07:27;3.25;;;0.50;;
20232;SDS011;37438;55.674;13.074;2023-05-29T18:13:35;4.60;;;0.77;;
20232;SDS011;37438;55.674;13.074;2023-05-29T18:16:40;0.93;;;0.22;;
20232;SDS011;37438;55.674;13.074;2023-05-29T18:22:49;3.97;;;0.77;;
20232;SDS011;37438;55.674;13.074;2023-05-29T18:25:54;0.47;;;0.30;;
20232;SDS011;37438;55.674;13.074;2023-05-29T18:28:58;1.85;;;0.50;;
20232;SDS011;37438;55.674;13.074;2023-05-29T18:32:06;3.60;;;0.63;;
20232;SDS011;37438;55.674;13.074;2023-05-29T18:35:11;1.05;;;0.40;;
20232;SDS011;37438;55.674;13.074;2023-05-29T18:38:15;2.22;;;1.67;;
20232;SDS011;37438;55.674;13.074;2023-05-29T18:41:20;1.50;;;0.55;;
20232;SDS011;37438;55.674;13.074;2023-05-29T18:44:25;4.63;;;0.65;;
20232;SDS011;37438;55.674;13.074;2023-05-29T18:47:29;1.60;;;0.60;;
20232;SDS011;37438;55.674;13.074;2023-05-29T18:50:35;5.03;;;0.82;;
20232;SDS011;37438;55.674;13.074;2023-05-29T18:56:44;2.50;;;0.30;;
20232;SDS011;37438;55.674;13.074;2023-05-29T18:59:49;3.33;;;0.85;;
20232;SDS011;37438;55.674;13.074;2023-05-29T19:02:55;3.63;;;0.90;;
20232;SDS011;37438;55.674;13.074;2023-05-29T19:06:00;1.05;;;0.57;;
20232;SDS011;37438;55.674;13.074;2023-05-29T19:12:09;5.65;;;1.10;;
20232;SDS011;37438;55.674;13.074;2023-05-29T19:15:14;2.38;;;1.45;;
20232;SDS011;37438;55.674;13.074;2023-05-29T19:18:19;8.13;;;0.70;;
20232;SDS011;37438;55.674;13.074;2023-05-29T19:21:23;3.75;;;1.30;;
20232;SDS011;37438;55.674;13.074;2023-05-29T19:24:27;1.73;;;0.50;;
20232;SDS011;37438;55.674;13.074;2023-05-29T19:27:32;4.28;;;0.60;;
20232;SDS011;37438;55.674;13.074;2023-05-29T19:33:41;5.32;;;0.50;;